Whitland, United Kingdom
Current Conditions -  °F | °C
As of 3:50 AM on Thursday 23 Oct 2014 (Local Time) from EGOP Reporting Station
Broken Clouds Broken Clouds  
Wind Chill: 57°   Ceiling: 3300
Heat Index: 57°   Visibility: 6mi
Dew Point: 54°   Wind: 20mph
Humidity: 88%   Direction: 230°SW
Pressure: 30.12"   Gusts: NA
Location:  51.82°N, 4.61°W
Report Text: EGOP 230250Z AUTO 23017KT 9999 // SCT013/// SCT018/// BKN033/// 14/12 Q1020
Loading
Personal Weather Stations






























Interactive Weather Map
Tropical Storm Tracking
New forecast layout! Learn more

10-Day Weather Forecast

Advertisements
Track Severe Weather on mobile